CYDO2: Sardis Lake

Data processed at Sat Mar 10 2018 23:14


All information presented herein is the property of the government of the United States of America and may be revised or deleted at any time without prior notice.
Dissemination of this information without the expressed written consent of the Public Affairs Office, Tulsa District U.S. Army Corps of Engineers is strictly prohibited.
These data are gathered electronically and, as presented, have not undergone any form of quality control. These data are not guaranteed to be valid or correct.
Go to home page.
Go to station list.

Downstream station:


Previous Day
Next Day
Current Day
    
SHEF ID:       CYDO2     Sardis Lake
STATION TYPE:  RESERVOIR
Normal Pool:  Bottom =   542.00, Top =   599.00

               PRECIP PRECIP(A) ELEVATION   STORAGE    INFLOW   RELEASE  AIR-TEMP  WIND-DIRWIND-SPEED REL-HUMID SOLAR-RAD   VOLTAGE  BAT-LOAD
                   in        in        ft     ac-ft       cfs       cfs         F       deg       mph         %      W/m2      volt      volt
              Ccp-Rev   Ccp-Rev   Ccp-Rev   Ccp-Rev  Regi-Rev  Regi-Rev   Ccp-Rev   Ccp-Rev   Ccp-Rev   Ccp-Rev   Ccp-Rev   Ccp-Rev   Ccp-Rev
(US/Central)
03/08 00:00      0.00      ----    602.34    321934        40       976     32.22    159.50      4.60     77.49      0.00     14.26     13.13
03/08 01:00      0.00      ----    602.34    321934        40       976     31.37    167.70      3.20     81.19      0.00     14.26     13.13
03/08 02:00      0.00      ----    602.33    321783        40       976     30.36    167.70      3.20     86.20      0.00     14.25     13.13
03/08 03:00      0.00      ----    602.32    321632        40       976     29.43    168.60      3.70     89.55      0.00     14.26     13.13
03/08 04:00      0.00      ----    602.32    321632        40       976     29.08    161.60      3.40     88.02      0.00     14.10     13.13
03/08 05:00      0.00      ----    602.31    321482        50       976     27.81    170.10      4.70     91.33      0.00     14.24     13.13
03/08 06:00      0.00      ----    602.31    321482        50       976     28.02    173.90      4.50     90.55      0.00     14.23     13.13
03/08 07:00      0.00      ----    602.30    321331        40       976     27.95    181.80      2.20     92.93      6.30     14.26     13.13
03/08 08:00      0.00      ----    602.30    321331        31       976     27.84    157.10      4.40     91.90    156.00     14.26     13.13
03/08 09:00      0.00      ----    602.29    321180        23       976     33.33     94.40      2.20     85.30    405.80     14.26     13.37
03/08 10:00      0.00      ----    602.28    321030        14       976     38.80      0.30      3.50     75.34    601.50     14.25     14.08
03/08 11:00      0.00      ----    602.28    321030         5       976     45.39      1.80      3.60     49.04    741.30     14.26     13.92
03/08 12:00      0.00      ----    602.27    320879         6       976     50.67      1.90      4.20     37.78    774.40     14.27     13.84
03/08 13:00      0.00      ----    602.27    320879         6       976     53.96     18.10      5.70     38.74    818.50     14.27     14.16
03/08 14:00      0.00      ----    602.26    320728         6       976     56.64     26.10      4.80     37.95    673.40     14.27     14.08
03/08 15:00      0.00      ----    602.26    320728         6       976     58.23     25.10      4.50     30.51    531.40     14.28     13.53
03/08 16:00      0.00      ----    602.25    320577         5       976     61.70    164.90      7.40     21.77    529.40     14.28     13.60
03/08 17:00      0.00      ----    602.25    320577         5       976     62.26    182.70      9.40     21.59    304.90     14.29     13.21
03/08 18:00      0.00      ----    602.24    320427         5       976     60.82    184.60      8.50     24.67     88.20     14.29     13.21
03/08 19:00      0.00      ----    602.23    320276         5       975     57.04    185.50      6.50     30.55      0.00     14.28     13.13
03/08 20:00      0.00      ----    602.23    320276         5       975     50.14    179.00      6.10     45.35      0.00     14.26     13.13
03/08 21:00      0.00      ----    602.23    320276         5       976     53.60    194.30     12.60     34.80      0.00     14.28     13.13
03/08 22:00      0.00      ----    602.22    320125         4       975     51.48    178.70      8.20     39.10      0.00     14.28     13.13
03/08 23:00      0.00      ----    602.21    319975         4       975     51.71    179.40     14.10     37.28      0.00     14.28     13.13